sensor_id;sensor_type;location;lat;lon;timestamp;pressure;altitude;pressure_sealevel;temperature;humidity
49999;BME280;68071;45.062;7.356;2023-02-28T00:01:41;95487.59;;;-0.47;100.00
49999;BME280;68071;45.062;7.356;2023-02-28T00:04:46;95484.69;;;-0.42;99.91
49999;BME280;68071;45.062;7.356;2023-02-28T00:08:04;95480.34;;;-0.64;100.00
49999;BME280;68071;45.062;7.356;2023-02-28T00:11:11;95483.34;;;-0.27;95.17
49999;BME280;68071;45.062;7.356;2023-02-28T00:14:15;95485.00;;;-0.13;94.52
49999;BME280;68071;45.062;7.356;2023-02-28T00:17:19;95483.75;;;-0.46;99.20
49999;BME280;68071;45.062;7.356;2023-02-28T00:20:24;95482.53;;;-0.27;95.78
49999;BME280;68071;45.062;7.356;2023-02-28T00:23:28;95487.50;;;-0.29;97.39
49999;BME280;68071;45.062;7.356;2023-02-28T00:26:32;95483.22;;;-0.31;97.87
49999;BME280;68071;45.062;7.356;2023-02-28T00:29:36;95491.53;;;-0.36;99.67
49999;BME280;68071;45.062;7.356;2023-02-28T00:32:41;95482.47;;;-0.19;97.63
49999;BME280;68071;45.062;7.356;2023-02-28T00:35:45;95487.97;;;-0.27;98.53
49999;BME280;68071;45.062;7.356;2023-02-28T00:38:49;95479.81;;;0.15;93.98
49999;BME280;68071;45.062;7.356;2023-02-28T00:41:53;95481.19;;;0.09;94.64
49999;BME280;68071;45.062;7.356;2023-02-28T00:44:57;95485.59;;;-0.08;97.36
49999;BME280;68071;45.062;7.356;2023-02-28T00:48:01;95486.47;;;-0.46;100.00
49999;BME280;68071;45.062;7.356;2023-02-28T00:51:06;95484.47;;;-0.58;100.00
49999;BME280;68071;45.062;7.356;2023-02-28T00:54:09;95492.31;;;-0.35;98.54
49999;BME280;68071;45.062;7.356;2023-02-28T00:57:13;95484.69;;;-0.42;100.00
49999;BME280;68071;45.062;7.356;2023-02-28T01:00:17;95484.88;;;-0.77;100.00
49999;BME280;68071;45.062;7.356;2023-02-28T01:03:22;95483.63;;;-0.80;100.00
49999;BME280;68071;45.062;7.356;2023-02-28T01:06:26;95477.94;;;-0.66;100.00
49999;BME280;68071;45.062;7.356;2023-02-28T01:09:30;95476.38;;;-0.67;100.00
49999;BME280;68071;45.062;7.356;2023-02-28T01:12:35;95473.66;;;-0.37;100.00
49999;BME280;68071;45.062;7.356;2023-02-28T01:15:50;95482.63;;;-0.45;100.00
49999;BME280;68071;45.062;7.356;2023-02-28T01:18:54;95487.69;;;-0.35;99.41
49999;BME280;68071;45.062;7.356;2023-02-28T01:22:02;95491.34;;;-0.61;100.00
49999;BME280;68071;45.062;7.356;2023-02-28T01:25:06;95486.13;;;-0.74;100.00
49999;BME280;68071;45.062;7.356;2023-02-28T01:28:10;95488.19;;;-0.71;100.00
49999;BME280;68071;45.062;7.356;2023-02-28T01:31:14;95492.66;;;-0.67;100.00
49999;BME280;68071;45.062;7.356;2023-02-28T01:34:18;95490.59;;;-0.70;100.00
49999;BME280;68071;45.062;7.356;2023-02-28T01:37:23;95488.41;;;-0.77;100.00
49999;BME280;68071;45.062;7.356;2023-02-28T01:40:27;95484.72;;;-0.72;100.00
49999;BME280;68071;45.062;7.356;2023-02-28T01:46:47;95477.94;;;-0.57;100.00
49999;BME280;68071;45.062;7.356;2023-02-28T01:49:51;95478.75;;;-0.65;100.00
49999;BME280;68071;45.062;7.356;2023-02-28T01:52:57;95481.53;;;-0.74;100.00
49999;BME280;68071;45.062;7.356;2023-02-28T01:56:07;95485.97;;;-0.69;100.00
49999;BME280;68071;45.062;7.356;2023-02-28T01:59:15;95491.59;;;-0.44;100.00
49999;BME280;68071;45.062;7.356;2023-02-28T02:02:22;95488.75;;;-0.87;100.00
49999;BME280;68071;45.062;7.356;2023-02-28T02:05:29;95491.78;;;-0.80;100.00
49999;BME280;68071;45.062;7.356;2023-02-28T02:08:36;95480.91;;;-0.80;100.00
49999;BME280;68071;45.062;7.356;2023-02-28T02:11:44;95483.03;;;-0.85;100.00
49999;BME280;68071;45.062;7.356;2023-02-28T02:15:02;95486.31;;;-0.71;100.00
49999;BME280;68071;45.062;7.356;2023-02-28T02:18:23;95483.91;;;-0.72;100.00
49999;BME280;68071;45.062;7.356;2023-02-28T02:25:04;95481.22;;;-0.81;100.00
49999;BME280;68071;45.062;7.356;2023-02-28T02:35:13;95487.75;;;-0.43;100.00
49999;BME280;68071;45.062;7.356;2023-02-28T02:41:35;95481.78;;;-0.37;100.00
49999;BME280;68071;45.062;7.356;2023-02-28T02:44:47;95489.94;;;-0.37;100.00
49999;BME280;68071;45.062;7.356;2023-02-28T02:47:53;95479.69;;;-0.31;100.00
49999;BME280;68071;45.062;7.356;2023-02-28T02:51:05;95469.88;;;-0.23;100.00
49999;BME280;68071;45.062;7.356;2023-02-28T02:54:19;95482.22;;;-0.56;100.00
49999;BME280;68071;45.062;7.356;2023-02-28T02:57:36;95481.72;;;-0.49;100.00
49999;BME280;68071;45.062;7.356;2023-02-28T03:00:46;95488.16;;;-0.63;100.00
49999;BME280;68071;45.062;7.356;2023-02-28T03:03:51;95484.06;;;-0.69;100.00
49999;BME280;68071;45.062;7.356;2023-02-28T03:06:55;95487.25;;;-0.67;100.00
49999;BME280;68071;45.062;7.356;2023-02-28T03:10:00;95501.84;;;-0.50;100.00
49999;BME280;68071;45.062;7.356;2023-02-28T03:22:50;95495.69;;;-0.68;100.00
49999;BME280;68071;45.062;7.356;2023-02-28T03:26:03;95499.66;;;-0.66;100.00
49999;BME280;68071;45.062;7.356;2023-02-28T03:29:26;95502.75;;;-0.46;98.05
49999;BME280;68071;45.062;7.356;2023-02-28T03:36:33;95504.50;;;-0.41;99.27
49999;BME280;68071;45.062;7.356;2023-02-28T03:40:04;95502.31;;;-0.48;99.32
49999;BME280;68071;45.062;7.356;2023-02-28T03:43:16;95513.78;;;-0.42;98.73
49999;BME280;68071;45.062;7.356;2023-02-28T03:46:24;95508.00;;;-0.41;97.46
49999;BME280;68071;45.062;7.356;2023-02-28T03:49:36;95506.59;;;-0.38;97.50
49999;BME280;68071;45.062;7.356;2023-02-28T03:52:52;95508.34;;;-0.42;100.00
49999;BME280;68071;45.062;7.356;2023-02-28T03:56:02;95503.53;;;-0.67;100.00
49999;BME280;68071;45.062;7.356;2023-02-28T03:59:15;95507.06;;;-0.75;100.00
49999;BME280;68071;45.062;7.356;2023-02-28T04:02:21;95510.13;;;-0.77;100.00
49999;BME280;68071;45.062;7.356;2023-02-28T04:05:26;95507.16;;;-0.63;100.00
49999;BME280;68071;45.062;7.356;2023-02-28T04:08:31;95514.53;;;-0.63;100.00
49999;BME280;68071;45.062;7.356;2023-02-28T04:11:37;95515.94;;;-0.66;100.00
49999;BME280;68071;45.062;7.356;2023-02-28T04:14:42;95522.19;;;-0.65;100.00
49999;BME280;68071;45.062;7.356;2023-02-28T04:17:45;95521.09;;;-0.73;100.00
49999;BME280;68071;45.062;7.356;2023-02-28T04:20:50;95530.38;;;-0.74;100.00
49999;BME280;68071;45.062;7.356;2023-02-28T04:23:54;95527.47;;;-0.69;100.00
49999;BME280;68071;45.062;7.356;2023-02-28T04:26:58;95527.00;;;-0.71;100.00
49999;BME280;68071;45.062;7.356;2023-02-28T04:30:02;95527.81;;;-0.79;100.00
49999;BME280;68071;45.062;7.356;2023-02-28T04:33:06;95522.25;;;-0.83;100.00
49999;BME280;68071;45.062;7.356;2023-02-28T04:36:11;95538.22;;;-0.81;100.00
49999;BME280;68071;45.062;7.356;2023-02-28T04:39:17;95527.56;;;-0.86;100.00
49999;BME280;68071;45.062;7.356;2023-02-28T04:42:22;95541.41;;;-0.79;100.00
49999;BME280;68071;45.062;7.356;2023-02-28T04:45:26;95536.75;;;-0.70;100.00
49999;BME280;68071;45.062;7.356;2023-02-28T04:48:36;95547.75;;;-0.66;100.00
49999;BME280;68071;45.062;7.356;2023-02-28T04:51:41;95545.81;;;-0.57;100.00
49999;BME280;68071;45.062;7.356;2023-02-28T04:54:44;95547.97;;;-0.41;100.00
49999;BME280;68071;45.062;7.356;2023-02-28T04:57:48;95549.09;;;-0.42;100.00
49999;BME280;68071;45.062;7.356;2023-02-28T05:00:52;95541.03;;;-0.60;100.00
49999;BME280;68071;45.062;7.356;2023-02-28T05:03:58;95549.47;;;-0.62;100.00
49999;BME280;68071;45.062;7.356;2023-02-28T05:07:03;95545.47;;;-0.55;100.00
49999;BME280;68071;45.062;7.356;2023-02-28T05:10:07;95544.41;;;-0.72;100.00
49999;BME280;68071;45.062;7.356;2023-02-28T05:13:11;95549.50;;;-0.70;100.00
49999;BME280;68071;45.062;7.356;2023-02-28T05:16:16;95542.84;;;-0.82;100.00
49999;BME280;68071;45.062;7.356;2023-02-28T05:19:20;95543.47;;;-0.76;100.00
49999;BME280;68071;45.062;7.356;2023-02-28T05:22:25;95553.19;;;-0.75;100.00
49999;BME280;68071;45.062;7.356;2023-02-28T05:25:28;95542.34;;;-0.75;100.00
49999;BME280;68071;45.062;7.356;2023-02-28T05:28:32;95550.84;;;-0.85;100.00
49999;BME280;68071;45.062;7.356;2023-02-28T05:31:36;95552.41;;;-0.84;100.00
49999;BME280;68071;45.062;7.356;2023-02-28T05:34:41;95553.66;;;-0.64;100.00
49999;BME280;68071;45.062;7.356;2023-02-28T05:37:44;95556.31;;;-0.55;100.00
49999;BME280;68071;45.062;7.356;2023-02-28T05:40:48;95550.31;;;-0.70;100.00
49999;BME280;68071;45.062;7.356;2023-02-28T05:43:52;95549.53;;;-0.79;100.00
49999;BME280;68071;45.062;7.356;2023-02-28T05:46:57;95542.50;;;-0.80;100.00
49999;BME280;68071;45.062;7.356;2023-02-28T05:50:01;95546.41;;;-0.51;100.00
49999;BME280;68071;45.062;7.356;2023-02-28T05:53:05;95553.34;;;-0.33;100.00
49999;BME280;68071;45.062;7.356;2023-02-28T05:56:09;95553.81;;;-0.69;100.00
49999;BME280;68071;45.062;7.356;2023-02-28T05:59:13;95547.59;;;-0.70;100.00
49999;BME280;68071;45.062;7.356;2023-02-28T06:02:17;95551.25;;;-0.66;100.00
49999;BME280;68071;45.062;7.356;2023-02-28T06:05:22;95557.94;;;-0.24;100.00
49999;BME280;68071;45.062;7.356;2023-02-28T06:08:25;95554.13;;;-0.32;100.00
49999;BME280;68071;45.062;7.356;2023-02-28T06:11:29;95561.34;;;-0.36;100.00
49999;BME280;68071;45.062;7.356;2023-02-28T06:14:34;95560.84;;;-0.29;100.00
49999;BME280;68071;45.062;7.356;2023-02-28T06:17:38;95563.00;;;-0.53;100.00
49999;BME280;68071;45.062;7.356;2023-02-28T06:20:41;95568.34;;;-0.65;100.00
49999;BME280;68071;45.062;7.356;2023-02-28T06:23:46;95573.44;;;-0.64;100.00
49999;BME280;68071;45.062;7.356;2023-02-28T06:26:50;95578.84;;;-0.64;100.00
49999;BME280;68071;45.062;7.356;2023-02-28T06:29:55;95581.47;;;-0.37;100.00
49999;BME280;68071;45.062;7.356;2023-02-28T06:33:01;95586.00;;;-0.50;100.00
49999;BME280;68071;45.062;7.356;2023-02-28T06:36:06;95589.63;;;-0.37;100.00
49999;BME280;68071;45.062;7.356;2023-02-28T06:39:10;95585.00;;;-0.07;100.00
49999;BME280;68071;45.062;7.356;2023-02-28T06:42:14;95578.56;;;-0.32;100.00
49999;BME280;68071;45.062;7.356;2023-02-28T06:45:19;95584.66;;;-0.35;100.00
49999;BME280;68071;45.062;7.356;2023-02-28T06:48:23;95587.56;;;-0.40;100.00
49999;BME280;68071;45.062;7.356;2023-02-28T06:51:27;95591.06;;;-0.40;100.00
49999;BME280;68071;45.062;7.356;2023-02-28T06:54:31;95596.00;;;-0.33;100.00
49999;BME280;68071;45.062;7.356;2023-02-28T06:57:35;95594.00;;;-0.15;100.00
49999;BME280;68071;45.062;7.356;2023-02-28T07:00:41;95605.13;;;-0.08;100.00
49999;BME280;68071;45.062;7.356;2023-02-28T07:03:46;95605.66;;;-0.14;100.00
49999;BME280;68071;45.062;7.356;2023-02-28T07:06:50;95607.66;;;-0.33;100.00
49999;BME280;68071;45.062;7.356;2023-02-28T07:09:57;95612.06;;;-0.19;100.00
49999;BME280;68071;45.062;7.356;2023-02-28T07:13:00;95608.19;;;-0.09;100.00
49999;BME280;68071;45.062;7.356;2023-02-28T07:16:06;95615.94;;;-0.29;100.00
49999;BME280;68071;45.062;7.356;2023-02-28T07:19:12;95615.56;;;-0.19;100.00
49999;BME280;68071;45.062;7.356;2023-02-28T07:22:16;95609.78;;;-0.38;100.00
49999;BME280;68071;45.062;7.356;2023-02-28T07:25:24;95608.56;;;-0.58;100.00
49999;BME280;68071;45.062;7.356;2023-02-28T07:28:29;95620.53;;;-0.12;100.00
49999;BME280;68071;45.062;7.356;2023-02-28T07:31:33;95617.31;;;-0.14;100.00
49999;BME280;68071;45.062;7.356;2023-02-28T07:34:37;95621.56;;;-0.34;100.00
49999;BME280;68071;45.062;7.356;2023-02-28T07:37:42;95610.81;;;-0.22;100.00
49999;BME280;68071;45.062;7.356;2023-02-28T07:40:45;95629.00;;;0.17;100.00
49999;BME280;68071;45.062;7.356;2023-02-28T07:43:49;95621.38;;;0.31;100.00
49999;BME280;68071;45.062;7.356;2023-02-28T07:46:53;95625.63;;;-0.10;100.00
49999;BME280;68071;45.062;7.356;2023-02-28T07:49:57;95632.13;;;-0.03;100.00
49999;BME280;68071;45.062;7.356;2023-02-28T07:53:01;95631.50;;;0.22;100.00
49999;BME280;68071;45.062;7.356;2023-02-28T07:56:06;95632.88;;;0.37;100.00
49999;BME280;68071;45.062;7.356;2023-02-28T07:59:10;95632.72;;;0.33;99.76
49999;BME280;68071;45.062;7.356;2023-02-28T08:02:15;95640.09;;;0.03;100.00
49999;BME280;68071;45.062;7.356;2023-02-28T08:05:19;95639.44;;;0.36;99.49
49999;BME280;68071;45.062;7.356;2023-02-28T08:08:23;95642.25;;;0.18;100.00
49999;BME280;68071;45.062;7.356;2023-02-28T08:11:27;95642.34;;;0.30;100.00
49999;BME280;68071;45.062;7.356;2023-02-28T08:14:31;95644.94;;;0.48;98.24
49999;BME280;68071;45.062;7.356;2023-02-28T08:17:35;95642.56;;;-0.13;100.00
49999;BME280;68071;45.062;7.356;2023-02-28T08:20:39;95649.59;;;-0.51;100.00
49999;BME280;68071;45.062;7.356;2023-02-28T08:23:43;95655.31;;;-0.53;100.00
49999;BME280;68071;45.062;7.356;2023-02-28T08:26:47;95658.22;;;-0.58;100.00
49999;BME280;68071;45.062;7.356;2023-02-28T08:29:51;95652.94;;;-0.54;100.00
49999;BME280;68071;45.062;7.356;2023-02-28T08:32:55;95659.31;;;-0.50;100.00
49999;BME280;68071;45.062;7.356;2023-02-28T08:35:59;95659.81;;;-0.48;100.00
49999;BME280;68071;45.062;7.356;2023-02-28T08:39:04;95670.00;;;-0.45;100.00
49999;BME280;68071;45.062;7.356;2023-02-28T08:42:08;95670.47;;;-0.43;100.00
49999;BME280;68071;45.062;7.356;2023-02-28T08:45:12;95677.00;;;-0.44;100.00
49999;BME280;68071;45.062;7.356;2023-02-28T08:48:16;95672.97;;;-0.29;100.00
49999;BME280;68071;45.062;7.356;2023-02-28T08:51:21;95677.66;;;-0.38;98.18
49999;BME280;68071;45.062;7.356;2023-02-28T08:54:30;95669.19;;;-0.37;97.66
49999;BME280;68071;45.062;7.356;2023-02-28T08:57:35;95677.94;;;-0.31;95.92
49999;BME280;68071;45.062;7.356;2023-02-28T09:00:40;95683.06;;;-0.29;96.92
49999;BME280;68071;45.062;7.356;2023-02-28T09:03:44;95685.38;;;-0.10;96.18
49999;BME280;68071;45.062;7.356;2023-02-28T09:06:49;95693.91;;;0.18;93.15
49999;BME280;68071;45.062;7.356;2023-02-28T09:09:53;95695.44;;;-0.02;90.90
49999;BME280;68071;45.062;7.356;2023-02-28T09:12:57;95691.97;;;-0.20;89.58
49999;BME280;68071;45.062;7.356;2023-02-28T09:16:03;95701.06;;;-0.16;88.69
49999;BME280;68071;45.062;7.356;2023-02-28T09:19:11;95695.91;;;-0.09;89.03
49999;BME280;68071;45.062;7.356;2023-02-28T09:22:15;95687.31;;;-0.11;88.07
49999;BME280;68071;45.062;7.356;2023-02-28T09:25:20;95708.00;;;0.41;86.77
49999;BME280;68071;45.062;7.356;2023-02-28T09:28:24;95706.38;;;0.19;86.32
49999;BME280;68071;45.062;7.356;2023-02-28T09:31:28;95712.84;;;-0.03;85.15
49999;BME280;68071;45.062;7.356;2023-02-28T09:34:34;95710.75;;;0.03;86.64
49999;BME280;68071;45.062;7.356;2023-02-28T09:37:40;95710.28;;;0.30;85.64
49999;BME280;68071;45.062;7.356;2023-02-28T09:40:50;95717.41;;;0.53;89.07
49999;BME280;68071;45.062;7.356;2023-02-28T09:43:57;95715.78;;;1.24;83.56
49999;BME280;68071;45.062;7.356;2023-02-28T09:47:27;95713.13;;;1.15;82.88
49999;BME280;68071;45.062;7.356;2023-02-28T09:50:40;95712.38;;;0.34;85.26
49999;BME280;68071;45.062;7.356;2023-02-28T09:53:45;95718.53;;;0.73;83.74
49999;BME280;68071;45.062;7.356;2023-02-28T09:56:53;95714.44;;;0.37;84.36
49999;BME280;68071;45.062;7.356;2023-02-28T10:06:20;95714.81;;;2.33;78.39
49999;BME280;68071;45.062;7.356;2023-02-28T10:09:30;95716.16;;;2.64;78.43
49999;BME280;68071;45.062;7.356;2023-02-28T10:12:38;95714.34;;;2.68;79.00
49999;BME280;68071;45.062;7.356;2023-02-28T10:15:47;95714.19;;;2.90;78.27
49999;BME280;68071;45.062;7.356;2023-02-28T10:19:03;95716.06;;;3.14;76.28
49999;BME280;68071;45.062;7.356;2023-02-28T10:22:19;95708.28;;;3.28;75.14
49999;BME280;68071;45.062;7.356;2023-02-28T10:25:27;95713.31;;;3.55;73.41
49999;BME280;68071;45.062;7.356;2023-02-28T10:28:31;95701.28;;;3.43;75.33
49999;BME280;68071;45.062;7.356;2023-02-28T10:31:35;95710.53;;;3.39;75.17
49999;BME280;68071;45.062;7.356;2023-02-28T10:34:39;95716.03;;;3.55;75.83
49999;BME280;68071;45.062;7.356;2023-02-28T10:37:47;95708.25;;;3.41;75.83
49999;BME280;68071;45.062;7.356;2023-02-28T10:41:03;95709.38;;;3.40;74.62
49999;BME280;68071;45.062;7.356;2023-02-28T10:44:20;95711.22;;;3.64;73.49
49999;BME280;68071;45.062;7.356;2023-02-28T10:47:24;95718.34;;;3.12;72.23
49999;BME280;68071;45.062;7.356;2023-02-28T10:50:36;95713.34;;;3.42;72.65
49999;BME280;68071;45.062;7.356;2023-02-28T10:53:52;95706.13;;;2.81;75.00
49999;BME280;68071;45.062;7.356;2023-02-28T10:57:23;95702.94;;;2.91;74.60
49999;BME280;68071;45.062;7.356;2023-02-28T11:00:35;95710.97;;;3.41;72.38
49999;BME280;68071;45.062;7.356;2023-02-28T11:03:39;95701.88;;;3.65;71.03
49999;BME280;68071;45.062;7.356;2023-02-28T11:06:44;95688.97;;;4.26;69.77
49999;BME280;68071;45.062;7.356;2023-02-28T11:09:51;95693.19;;;4.39;65.94
49999;BME280;68071;45.062;7.356;2023-02-28T11:12:56;95686.50;;;4.37;63.95
49999;BME280;68071;45.062;7.356;2023-02-28T11:16:04;95684.09;;;4.51;63.43
49999;BME280;68071;45.062;7.356;2023-02-28T11:19:19;95675.88;;;4.35;64.32
49999;BME280;68071;45.062;7.356;2023-02-28T11:22:26;95674.66;;;4.33;64.26
49999;BME280;68071;45.062;7.356;2023-02-28T11:25:34;95679.09;;;3.45;66.40
49999;BME280;68071;45.062;7.356;2023-02-28T11:28:41;95658.69;;;4.19;63.72
49999;BME280;68071;45.062;7.356;2023-02-28T11:32:21;95664.34;;;4.10;63.30
49999;BME280;68071;45.062;7.356;2023-02-28T11:35:32;95659.19;;;4.57;63.11
49999;BME280;68071;45.062;7.356;2023-02-28T11:38:38;95661.59;;;4.42;63.71
49999;BME280;68071;45.062;7.356;2023-02-28T11:41:53;95663.13;;;4.23;64.36
49999;BME280;68071;45.062;7.356;2023-02-28T11:51:35;95655.94;;;4.51;67.16
49999;BME280;68071;45.062;7.356;2023-02-28T11:55:25;95643.75;;;5.04;65.02
49999;BME280;68071;45.062;7.356;2023-02-28T11:58:33;95649.75;;;5.29;65.03
49999;BME280;68071;45.062;7.356;2023-02-28T12:02:23;95635.97;;;5.25;64.44
49999;BME280;68071;45.062;7.356;2023-02-28T12:12:38;95622.34;;;5.09;64.18
49999;BME280;68071;45.062;7.356;2023-02-28T12:23:25;95614.81;;;4.67;64.90
49999;BME280;68071;45.062;7.356;2023-02-28T12:26:47;95611.03;;;4.72;65.52
49999;BME280;68071;45.062;7.356;2023-02-28T12:30:02;95613.44;;;4.57;65.04
49999;BME280;68071;45.062;7.356;2023-02-28T12:33:13;95605.31;;;4.61;66.17
49999;BME280;68071;45.062;7.356;2023-02-28T12:36:20;95609.09;;;4.92;66.51
49999;BME280;68071;45.062;7.356;2023-02-28T12:39:31;95605.47;;;4.32;69.56
49999;BME280;68071;45.062;7.356;2023-02-28T12:42:52;95607.78;;;3.98;69.89
49999;BME280;68071;45.062;7.356;2023-02-28T12:49:45;95603.06;;;4.31;66.96
49999;BME280;68071;45.062;7.356;2023-02-28T12:53:06;95585.75;;;3.91;67.52
49999;BME280;68071;45.062;7.356;2023-02-28T12:56:22;95586.13;;;2.44;73.86
49999;BME280;68071;45.062;7.356;2023-02-28T12:59:41;95587.75;;;1.58;78.89
49999;BME280;68071;45.062;7.356;2023-02-28T13:03:06;95591.47;;;2.81;72.99
49999;BME280;68071;45.062;7.356;2023-02-28T13:09:51;95584.84;;;3.39;71.42
49999;BME280;68071;45.062;7.356;2023-02-28T13:12:56;95570.75;;;2.92;72.01
49999;BME280;68071;45.062;7.356;2023-02-28T13:16:07;95567.06;;;3.77;69.65
49999;BME280;68071;45.062;7.356;2023-02-28T13:19:11;95569.19;;;2.79;71.95
49999;BME280;68071;45.062;7.356;2023-02-28T13:38:32;95552.81;;;4.19;69.91
49999;BME280;68071;45.062;7.356;2023-02-28T13:41:44;95549.63;;;4.17;70.23
49999;BME280;68071;45.062;7.356;2023-02-28T13:48:18;95549.75;;;4.05;70.62
49999;BME280;68071;45.062;7.356;2023-02-28T13:51:39;95543.50;;;4.24;72.25
49999;BME280;68071;45.062;7.356;2023-02-28T13:54:56;95538.00;;;4.40;70.07
49999;BME280;68071;45.062;7.356;2023-02-28T14:01:48;95525.25;;;2.27;77.71
49999;BME280;68071;45.062;7.356;2023-02-28T14:05:01;95531.00;;;3.39;75.22
49999;BME280;68071;45.062;7.356;2023-02-28T14:08:15;95524.81;;;3.58;74.37
49999;BME280;68071;45.062;7.356;2023-02-28T14:11:28;95523.34;;;3.45;75.39
49999;BME280;68071;45.062;7.356;2023-02-28T14:17:40;95513.69;;;4.19;72.72
49999;BME280;68071;45.062;7.356;2023-02-28T14:20:46;95508.09;;;4.12;69.98
49999;BME280;68071;45.062;7.356;2023-02-28T14:24:25;95510.31;;;4.26;70.41
49999;BME280;68071;45.062;7.356;2023-02-28T14:27:49;95508.63;;;4.37;71.26
49999;BME280;68071;45.062;7.356;2023-02-28T14:37:33;95492.34;;;4.44;69.50
49999;BME280;68071;45.062;7.356;2023-02-28T14:40:40;95491.34;;;4.52;68.09
49999;BME280;68071;45.062;7.356;2023-02-28T14:43:53;95490.47;;;2.81;74.67
49999;BME280;68071;45.062;7.356;2023-02-28T14:47:00;95486.41;;;3.35;70.91
49999;BME280;68071;45.062;7.356;2023-02-28T14:50:27;95473.38;;;3.96;71.57
49999;BME280;68071;45.062;7.356;2023-02-28T14:53:37;95489.81;;;4.16;72.15
49999;BME280;68071;45.062;7.356;2023-02-28T14:56:41;95481.63;;;4.00;73.80
49999;BME280;68071;45.062;7.356;2023-02-28T14:59:45;95480.72;;;3.76;73.86
49999;BME280;68071;45.062;7.356;2023-02-28T15:02:49;95480.56;;;3.53;74.62
49999;BME280;68071;45.062;7.356;2023-02-28T15:06:01;95486.53;;;2.94;78.26
49999;BME280;68071;45.062;7.356;2023-02-28T15:09:09;95488.50;;;2.65;79.00
49999;BME280;68071;45.062;7.356;2023-02-28T15:12:14;95483.06;;;2.65;78.49
49999;BME280;68071;45.062;7.356;2023-02-28T15:15:20;95485.69;;;2.33;79.76
49999;BME280;68071;45.062;7.356;2023-02-28T15:21:38;95480.53;;;2.44;81.01
49999;BME280;68071;45.062;7.356;2023-02-28T15:24:52;95481.75;;;2.47;81.98
49999;BME280;68071;45.062;7.356;2023-02-28T15:27:56;95476.28;;;2.75;79.11
49999;BME280;68071;45.062;7.356;2023-02-28T15:31:03;95471.94;;;3.02;77.53
49999;BME280;68071;45.062;7.356;2023-02-28T15:34:34;95470.63;;;2.39;76.96
49999;BME280;68071;45.062;7.356;2023-02-28T15:37:45;95474.22;;;2.27;81.48
49999;BME280;68071;45.062;7.356;2023-02-28T15:40:57;95466.94;;;1.91;84.49
49999;BME280;68071;45.062;7.356;2023-02-28T15:44:28;95466.94;;;1.91;83.64
49999;BME280;68071;45.062;7.356;2023-02-28T15:47:36;95469.41;;;2.37;81.49
49999;BME280;68071;45.062;7.356;2023-02-28T15:50:40;95461.59;;;2.64;80.84
49999;BME280;68071;45.062;7.356;2023-02-28T15:53:48;95462.75;;;2.50;79.94
49999;BME280;68071;45.062;7.356;2023-02-28T15:56:55;95463.81;;;1.51;86.48
49999;BME280;68071;45.062;7.356;2023-02-28T16:00:02;95463.47;;;1.28;87.77
49999;BME280;68071;45.062;7.356;2023-02-28T16:03:47;95458.22;;;0.98;90.16
49999;BME280;68071;45.062;7.356;2023-02-28T16:07:05;95460.06;;;1.07;88.52
49999;BME280;68071;45.062;7.356;2023-02-28T16:10:12;95457.66;;;0.93;89.21
49999;BME280;68071;45.062;7.356;2023-02-28T16:13:17;95464.09;;;0.88;96.64
49999;BME280;68071;45.062;7.356;2023-02-28T16:16:24;95452.50;;;0.79;97.34
49999;BME280;68071;45.062;7.356;2023-02-28T16:19:28;95459.59;;;1.17;96.16
49999;BME280;68071;45.062;7.356;2023-02-28T16:22:33;95464.72;;;1.18;91.06
49999;BME280;68071;45.062;7.356;2023-02-28T16:25:39;95458.09;;;0.95;94.98
49999;BME280;68071;45.062;7.356;2023-02-28T16:28:44;95459.22;;;0.81;96.10
49999;BME280;68071;45.062;7.356;2023-02-28T16:31:48;95452.00;;;1.10;98.17
49999;BME280;68071;45.062;7.356;2023-02-28T16:34:52;95455.97;;;1.25;95.68
49999;BME280;68071;45.062;7.356;2023-02-28T16:37:56;95445.66;;;1.56;92.37
49999;BME280;68071;45.062;7.356;2023-02-28T16:41:00;95451.91;;;1.44;91.37
49999;BME280;68071;45.062;7.356;2023-02-28T16:44:09;95458.81;;;1.54;94.89
49999;BME280;68071;45.062;7.356;2023-02-28T16:47:14;95455.41;;;1.57;94.64
49999;BME280;68071;45.062;7.356;2023-02-28T16:50:24;95459.38;;;1.22;94.64
49999;BME280;68071;45.062;7.356;2023-02-28T16:53:28;95452.00;;;1.35;94.17
49999;BME280;68071;45.062;7.356;2023-02-28T16:56:33;95453.16;;;1.22;92.96
49999;BME280;68071;45.062;7.356;2023-02-28T16:59:37;95457.56;;;1.26;94.10
49999;BME280;68071;45.062;7.356;2023-02-28T17:02:42;95467.88;;;1.70;95.67
49999;BME280;68071;45.062;7.356;2023-02-28T17:05:45;95457.66;;;1.42;94.93
49999;BME280;68071;45.062;7.356;2023-02-28T17:08:50;95462.66;;;1.15;96.26
49999;BME280;68071;45.062;7.356;2023-02-28T17:11:54;95449.50;;;0.59;100.00
49999;BME280;68071;45.062;7.356;2023-02-28T17:15:00;95452.72;;;0.27;100.00
49999;BME280;68071;45.062;7.356;2023-02-28T17:18:05;95446.66;;;0.43;100.00
49999;BME280;68071;45.062;7.356;2023-02-28T17:21:14;95443.47;;;0.41;99.94
49999;BME280;68071;45.062;7.356;2023-02-28T17:24:19;95440.47;;;0.55;99.49
49999;BME280;68071;45.062;7.356;2023-02-28T17:27:23;95439.88;;;0.16;100.00
49999;BME280;68071;45.062;7.356;2023-02-28T17:30:27;95442.25;;;0.17;100.00
49999;BME280;68071;45.062;7.356;2023-02-28T17:33:31;95444.47;;;0.36;100.00
49999;BME280;68071;45.062;7.356;2023-02-28T17:36:35;95432.53;;;0.28;100.00
49999;BME280;68071;45.062;7.356;2023-02-28T17:39:40;95433.22;;;0.25;100.00
49999;BME280;68071;45.062;7.356;2023-02-28T17:42:44;95434.22;;;0.54;100.00
49999;BME280;68071;45.062;7.356;2023-02-28T17:45:48;95437.09;;;0.70;100.00
49999;BME280;68071;45.062;7.356;2023-02-28T17:48:53;95436.34;;;0.95;100.00
49999;BME280;68071;45.062;7.356;2023-02-28T17:51:57;95443.00;;;0.85;100.00
49999;BME280;68071;45.062;7.356;2023-02-28T17:55:03;95431.75;;;0.74;100.00
49999;BME280;68071;45.062;7.356;2023-02-28T17:58:10;95434.75;;;1.06;99.05
49999;BME280;68071;45.062;7.356;2023-02-28T18:01:16;95438.84;;;1.00;99.67
49999;BME280;68071;45.062;7.356;2023-02-28T18:04:21;95431.81;;;0.99;99.39
49999;BME280;68071;45.062;7.356;2023-02-28T18:07:25;95429.25;;;0.69;99.52
49999;BME280;68071;45.062;7.356;2023-02-28T18:10:29;95429.28;;;0.02;100.00
49999;BME280;68071;45.062;7.356;2023-02-28T18:13:36;95419.41;;;-0.03;100.00
49999;BME280;68071;45.062;7.356;2023-02-28T18:16:41;95417.50;;;0.31;100.00